createdAt,value
2024-01-18T00:00:14.246Z,14.10
2024-01-18T00:03:01.979Z,12.80
2024-01-18T00:05:29.581Z,13.60
2024-01-18T00:07:57.095Z,13.80
2024-01-18T00:10:28.183Z,16.30
2024-01-18T00:12:56.143Z,14.10
2024-01-18T00:15:24.041Z,13.50
2024-01-18T00:17:51.871Z,15.50
2024-01-18T00:20:19.554Z,15.50
2024-01-18T00:22:47.031Z,14.40
2024-01-18T00:25:14.532Z,14.10
2024-01-18T00:27:42.464Z,14.40
2024-01-18T00:30:10.498Z,12.40
2024-01-18T00:32:38.046Z,13.60
2024-01-18T00:35:06.106Z,14.80
2024-01-18T00:37:33.595Z,14.10
2024-01-18T00:40:01.192Z,15.80
2024-01-18T00:42:28.746Z,16.70
2024-01-18T00:44:56.313Z,14.70
2024-01-18T00:47:23.828Z,16.20
2024-01-18T00:49:51.305Z,14.80
2024-01-18T00:52:18.801Z,14.90
2024-01-18T00:54:46.256Z,14.60
2024-01-18T00:57:13.821Z,15.40
2024-01-18T00:59:41.276Z,16.20
2024-01-18T01:02:09.484Z,16.00
2024-01-18T01:04:37.039Z,15.00
2024-01-18T01:07:04.885Z,15.00
2024-01-18T01:09:32.486Z,15.20
2024-01-18T01:12:00.493Z,14.10
2024-01-18T01:14:27.968Z,14.80
2024-01-18T01:16:55.652Z,15.40
2024-01-18T01:19:23.113Z,14.80
2024-01-18T01:21:50.609Z,14.60
2024-01-18T01:24:18.157Z,15.50
2024-01-18T01:26:45.727Z,15.70
2024-01-18T01:29:13.236Z,15.10
2024-01-18T01:31:40.713Z,16.10
2024-01-18T01:34:08.254Z,15.80
2024-01-18T01:36:36.012Z,14.90
2024-01-18T01:39:04.745Z,15.60
2024-01-18T01:41:32.314Z,14.90
2024-01-18T01:44:00.907Z,15.50
2024-01-18T01:46:29.560Z,15.80
2024-01-18T01:49:01.619Z,15.60
2024-01-18T01:51:55.656Z,14.60
2024-01-18T01:54:26.743Z,17.10
2024-01-18T01:56:55.990Z,15.80
2024-01-18T01:59:24.728Z,16.90
2024-01-18T02:01:53.342Z,16.40
2024-01-18T02:04:21.913Z,16.50
2024-01-18T02:06:54.864Z,15.80
2024-01-18T02:09:22.931Z,15.90
2024-01-18T02:11:50.601Z,14.80
2024-01-18T02:14:19.601Z,15.80
2024-01-18T02:16:47.087Z,16.70
2024-01-18T02:19:15.084Z,16.40
2024-01-18T02:21:42.816Z,15.80
2024-01-18T02:24:34.067Z,16.10
2024-01-18T02:27:01.663Z,14.80
2024-01-18T02:29:29.184Z,16.60
2024-01-18T02:31:57.863Z,17.10
2024-01-18T02:34:26.525Z,18.60
2024-01-18T02:36:54.343Z,18.30
2024-01-18T02:39:22.694Z,17.60
2024-01-18T02:41:50.421Z,18.40
2024-01-18T02:44:18.397Z,19.30
2024-01-18T02:46:45.977Z,25.30
2024-01-18T02:49:13.534Z,19.80
2024-01-18T02:51:41.187Z,34.80
2024-01-18T02:54:08.773Z,22.10
2024-01-18T02:56:36.398Z,26.50
2024-01-18T02:59:03.872Z,31.30
2024-01-18T03:01:32.358Z,25.40
2024-01-18T03:04:00.222Z,24.60
2024-01-18T03:06:28.052Z,26.40
2024-01-18T03:08:55.579Z,26.30
2024-01-18T03:11:23.202Z,23.40
2024-01-18T03:13:50.727Z,24.60
2024-01-18T03:16:18.213Z,22.70
2024-01-18T03:18:47.740Z,21.70
2024-01-18T03:21:16.318Z,24.10
2024-01-18T03:23:43.838Z,27.80
2024-01-18T03:26:13.054Z,27.10
2024-01-18T03:28:40.566Z,27.00
2024-01-18T03:31:12.969Z,26.40
2024-01-18T03:33:40.570Z,22.50
2024-01-18T03:36:11.403Z,22.40
2024-01-18T03:38:39.021Z,20.50
2024-01-18T03:41:06.507Z,19.20
2024-01-18T03:43:34.064Z,20.30
2024-01-18T03:46:02.441Z,22.90
2024-01-18T03:48:30.084Z,20.50
2024-01-18T03:50:57.833Z,22.60
2024-01-18T03:53:25.360Z,22.30
2024-01-18T03:55:52.857Z,31.10
2024-01-18T03:58:20.369Z,23.00
2024-01-18T04:00:48.104Z,26.40
2024-01-18T04:03:15.876Z,38.30
2024-01-18T04:05:43.633Z,33.10
2024-01-18T04:08:11.782Z,32.80
2024-01-18T04:10:39.329Z,33.30
2024-01-18T04:13:06.860Z,37.10
2024-01-18T04:15:34.541Z,51.20
2024-01-18T04:18:02.315Z,72.50
2024-01-18T04:20:31.530Z,49.10
2024-01-18T04:22:59.614Z,26.60
2024-01-18T04:25:27.097Z,23.90
2024-01-18T04:27:54.642Z,24.30
2024-01-18T04:30:22.254Z,42.80
2024-01-18T04:32:49.862Z,50.80
2024-01-18T04:35:17.607Z,40.70
2024-01-18T04:37:45.226Z,29.90
2024-01-18T04:40:12.827Z,24.00
2024-01-18T04:42:40.621Z,25.60
2024-01-18T04:45:08.868Z,27.60
2024-01-18T04:47:36.834Z,30.20
2024-01-18T04:50:05.019Z,31.10
2024-01-18T04:52:33.399Z,30.30
2024-01-18T04:55:05.514Z,37.50
2024-01-18T04:57:34.428Z,34.40
2024-01-18T05:00:03.264Z,29.60
2024-01-18T05:02:30.858Z,26.90
2024-01-18T05:04:58.497Z,28.70
2024-01-18T05:07:26.460Z,24.50
2024-01-18T05:09:54.144Z,28.60
2024-01-18T05:12:21.724Z,26.70
2024-01-18T05:14:49.278Z,34.50
2024-01-18T05:17:17.528Z,40.40
2024-01-18T05:19:45.055Z,39.60
2024-01-18T05:22:12.683Z,33.50
2024-01-18T05:24:42.050Z,34.60
2024-01-18T05:27:11.005Z,31.60
2024-01-18T05:29:38.507Z,31.50
2024-01-18T05:32:06.216Z,36.60
2024-01-18T05:34:33.903Z,36.30
2024-01-18T05:37:01.697Z,45.40
2024-01-18T05:39:29.279Z,40.30
2024-01-18T05:41:56.916Z,43.60
2024-01-18T05:44:24.405Z,53.10
2024-01-18T05:46:52.313Z,46.70
2024-01-18T05:49:19.909Z,69.90
2024-01-18T05:51:47.623Z,54.10
2024-01-18T05:54:15.224Z,51.50
2024-01-18T05:56:42.819Z,44.80
2024-01-18T05:59:10.345Z,48.30
2024-01-18T06:01:37.883Z,48.50
2024-01-18T06:04:05.570Z,45.30
2024-01-18T06:06:33.261Z,44.70
2024-01-18T06:09:01.095Z,48.80
2024-01-18T06:11:28.863Z,48.90
2024-01-18T06:13:56.381Z,46.40
2024-01-18T06:16:23.915Z,56.00
2024-01-18T06:18:51.604Z,48.20
2024-01-18T06:21:19.279Z,48.90
2024-01-18T06:23:46.882Z,44.80
2024-01-18T06:26:14.507Z,36.40
2024-01-18T06:28:42.960Z,32.40
2024-01-18T06:31:10.630Z,35.30
2024-01-18T06:33:38.459Z,30.10
2024-01-18T06:36:08.921Z,37.30
2024-01-18T06:38:36.782Z,27.70
2024-01-18T06:41:04.529Z,29.80
2024-01-18T06:43:32.017Z,32.30
2024-01-18T06:45:59.667Z,30.50
2024-01-18T06:48:27.558Z,26.50
2024-01-18T06:50:56.726Z,34.60
2024-01-18T06:53:29.927Z,38.00
2024-01-18T06:55:58.036Z,42.20
2024-01-18T06:58:26.629Z,32.60
2024-01-18T07:00:54.259Z,35.10
2024-01-18T07:03:23.023Z,44.10
2024-01-18T07:05:50.939Z,35.60
2024-01-18T07:08:18.689Z,46.50
2024-01-18T07:10:49.293Z,39.80
2024-01-18T07:13:20.862Z,37.80
2024-01-18T07:15:48.621Z,38.80
2024-01-18T07:18:16.408Z,42.60
2024-01-18T07:20:44.156Z,52.90
2024-01-18T07:23:11.762Z,49.80
2024-01-18T07:25:39.342Z,48.30
2024-01-18T07:28:07.102Z,46.50
2024-01-18T07:30:35.127Z,49.00
2024-01-18T07:33:03.053Z,48.50
2024-01-18T07:35:30.687Z,45.40
2024-01-18T07:37:59.792Z,44.00
2024-01-18T07:40:27.454Z,41.40
2024-01-18T07:42:55.387Z,47.60
2024-01-18T07:45:23.373Z,48.90
2024-01-18T07:47:51.389Z,57.70
2024-01-18T07:50:30.238Z,53.20
2024-01-18T07:53:03.615Z,65.40
2024-01-18T07:55:32.208Z,89.70
2024-01-18T07:58:02.054Z,58.20
2024-01-18T08:00:29.898Z,70.80
2024-01-18T08:02:57.739Z,52.70
2024-01-18T08:05:25.596Z,57.40
2024-01-18T08:07:53.268Z,51.30
2024-01-18T08:10:20.883Z,50.40
2024-01-18T08:12:50.336Z,50.20
2024-01-18T08:15:17.986Z,44.90
2024-01-18T08:17:45.775Z,43.10
2024-01-18T08:20:16.454Z,50.70
2024-01-18T08:22:44.454Z,48.70
2024-01-18T08:25:12.653Z,56.30
2024-01-18T08:27:41.565Z,44.00
2024-01-18T08:30:10.096Z,44.50
2024-01-18T08:32:38.352Z,41.50
2024-01-18T08:35:07.992Z,42.90
2024-01-18T08:37:37.129Z,62.90
2024-01-18T08:40:05.953Z,61.20
2024-01-18T08:42:33.614Z,62.70
2024-01-18T08:45:01.779Z,58.10
2024-01-18T08:47:29.654Z,41.30
2024-01-18T08:49:57.257Z,46.80
2024-01-18T08:52:24.951Z,46.10
2024-01-18T08:54:53.262Z,44.10
2024-01-18T08:57:21.286Z,57.30
2024-01-18T08:59:49.027Z,65.10
2024-01-18T09:02:23.643Z,51.40
2024-01-18T09:04:52.889Z,47.10
2024-01-18T09:07:21.452Z,43.20
2024-01-18T09:09:49.445Z,33.20
2024-01-18T09:12:17.414Z,60.50
2024-01-18T09:14:45.925Z,43.20
2024-01-18T09:17:18.224Z,49.00
2024-01-18T09:19:46.481Z,39.30
2024-01-18T09:22:16.426Z,42.80
2024-01-18T09:24:44.237Z,50.40
2024-01-18T09:27:12.587Z,50.10
2024-01-18T09:29:40.348Z,51.30
2024-01-18T09:32:08.338Z,52.20
2024-01-18T09:34:35.964Z,46.70
2024-01-18T09:37:03.775Z,91.40
2024-01-18T09:39:32.279Z,50.90
2024-01-18T09:42:02.625Z,49.60
2024-01-18T09:44:33.643Z,63.70
2024-01-18T09:47:05.356Z,130.20
2024-01-18T09:49:37.021Z,99.80
2024-01-18T09:52:05.462Z,79.20
2024-01-18T09:54:34.488Z,75.40
2024-01-18T09:57:03.107Z,73.20
2024-01-18T09:59:33.962Z,101.60
2024-01-18T10:02:02.921Z,81.70
2024-01-18T10:04:32.645Z,43.00
2024-01-18T10:07:01.608Z,47.80
2024-01-18T10:09:30.745Z,34.50
2024-01-18T10:11:58.322Z,35.40
2024-01-18T10:14:43.184Z,32.90
2024-01-18T10:17:19.888Z,58.80
2024-01-18T10:19:50.837Z,55.60
2024-01-18T10:22:20.049Z,35.60
2024-01-18T10:24:48.141Z,34.60
2024-01-18T10:27:16.351Z,47.60
2024-01-18T10:29:44.194Z,47.80
2024-01-18T10:32:11.964Z,43.00
2024-01-18T10:34:40.820Z,43.10
2024-01-18T10:37:13.664Z,44.10
2024-01-18T10:39:42.763Z,33.70
2024-01-18T10:42:12.260Z,32.70
2024-01-18T10:44:42.523Z,26.50
2024-01-18T10:47:18.938Z,28.80
2024-01-18T10:49:47.048Z,28.30
2024-01-18T10:52:16.940Z,28.60
2024-01-18T10:54:54.430Z,32.60
2024-01-18T10:57:28.056Z,37.30
2024-01-18T10:59:56.516Z,43.80
2024-01-18T11:02:26.027Z,48.80
2024-01-18T11:04:55.824Z,44.10
2024-01-18T11:07:24.864Z,43.60
2024-01-18T11:09:54.445Z,35.50
2024-01-18T11:12:23.896Z,41.70
2024-01-18T11:14:54.534Z,37.90
2024-01-18T11:17:22.669Z,34.70
2024-01-18T11:19:51.146Z,31.70
2024-01-18T11:22:27.018Z,33.70
2024-01-18T11:25:04.735Z,32.70
2024-01-18T11:27:50.774Z,39.00
2024-01-18T11:30:52.072Z,37.60
2024-01-18T11:33:22.888Z,41.90
2024-01-18T11:35:50.737Z,45.50
2024-01-18T11:38:25.741Z,40.70
2024-01-18T11:40:57.497Z,36.90
2024-01-18T11:43:57.084Z,36.50
2024-01-18T11:46:49.961Z,34.50
2024-01-18T11:49:17.886Z,40.60
2024-01-18T11:51:48.355Z,38.30
2024-01-18T11:54:20.988Z,35.50
2024-01-18T11:56:56.475Z,43.50
2024-01-18T11:59:24.269Z,47.90
2024-01-18T12:01:51.849Z,45.20
2024-01-18T12:04:19.712Z,52.60
2024-01-18T12:06:47.483Z,53.50
2024-01-18T12:09:16.456Z,50.30
2024-01-18T12:11:44.284Z,68.10
2024-01-18T12:14:12.197Z,36.30
2024-01-18T12:16:40.362Z,40.20
2024-01-18T12:19:11.244Z,38.20
2024-01-18T12:21:39.351Z,37.50
2024-01-18T12:24:06.992Z,38.20
2024-01-18T12:26:36.420Z,44.50
2024-01-18T12:29:04.957Z,33.50
2024-01-18T12:31:34.748Z,33.30
2024-01-18T12:34:02.697Z,38.70
2024-01-18T12:36:31.385Z,40.30
2024-01-18T12:38:59.310Z,34.00
2024-01-18T12:41:27.352Z,32.60
2024-01-18T12:43:55.049Z,33.80
2024-01-18T12:46:23.281Z,46.00
2024-01-18T12:48:51.391Z,64.70
2024-01-18T12:51:20.025Z,154.80
2024-01-18T12:53:49.041Z,397.60
2024-01-18T12:56:17.658Z,294.00
2024-01-18T12:58:47.847Z,261.50
2024-01-18T13:01:34.333Z,98.90
2024-01-18T13:04:23.670Z,94.10
2024-01-18T13:07:01.502Z,63.00
2024-01-18T13:09:34.146Z,63.80
2024-01-18T13:12:05.586Z,75.40
2024-01-18T13:14:36.989Z,44.40
2024-01-18T13:17:05.511Z,66.50
2024-01-18T13:19:39.508Z,80.00
2024-01-18T13:22:11.155Z,72.00
2024-01-18T13:24:39.126Z,77.80
2024-01-18T13:27:06.757Z,58.60
2024-01-18T13:29:34.639Z,58.80
2024-01-18T13:32:02.692Z,48.80
2024-01-18T13:34:33.707Z,56.90
2024-01-18T13:37:04.872Z,40.80
2024-01-18T13:39:34.886Z,38.40
2024-01-18T13:42:02.444Z,38.70
2024-01-18T13:44:29.967Z,50.70
2024-01-18T13:46:57.487Z,33.10
2024-01-18T13:49:27.753Z,32.60
2024-01-18T13:51:55.772Z,31.70
2024-01-18T13:54:23.618Z,39.40
2024-01-18T13:56:51.174Z,37.80
2024-01-18T13:59:18.668Z,51.70
2024-01-18T14:01:46.809Z,50.10
2024-01-18T14:04:14.371Z,34.20
2024-01-18T14:06:42.128Z,39.10
2024-01-18T14:09:09.854Z,51.50
2024-01-18T14:11:37.482Z,42.30
2024-01-18T14:14:05.034Z,47.80
2024-01-18T14:16:32.643Z,53.80
2024-01-18T14:19:00.233Z,48.00
2024-01-18T14:21:28.740Z,51.00
2024-01-18T14:23:57.968Z,61.40
2024-01-18T14:26:25.714Z,57.60
2024-01-18T14:28:53.997Z,42.30
2024-01-18T14:31:22.474Z,50.50
2024-01-18T14:33:50.148Z,65.20
2024-01-18T14:36:17.827Z,51.50
2024-01-18T14:38:45.377Z,54.60
2024-01-18T14:41:13.728Z,68.80
2024-01-18T14:43:41.273Z,71.90
2024-01-18T14:46:08.821Z,119.30
2024-01-18T14:48:36.636Z,128.40
2024-01-18T14:51:04.523Z,107.30
2024-01-18T14:53:32.167Z,126.20
2024-01-18T14:55:59.674Z,94.30
2024-01-18T14:58:27.655Z,92.10
2024-01-18T15:00:55.765Z,68.00
2024-01-18T15:03:23.317Z,63.80
2024-01-18T15:05:50.911Z,92.10
2024-01-18T15:08:18.437Z,75.50
2024-01-18T15:10:46.028Z,73.00
2024-01-18T15:13:14.804Z,73.20
2024-01-18T15:15:43.460Z,65.30
2024-01-18T15:18:11.167Z,92.20
2024-01-18T15:20:38.809Z,117.80
2024-01-18T15:23:07.680Z,51.20
2024-01-18T15:25:35.573Z,84.00
2024-01-18T15:28:03.165Z,70.60
2024-01-18T15:30:31.378Z,80.20
2024-01-18T15:32:58.986Z,73.20
2024-01-18T15:35:29.048Z,67.80
2024-01-18T15:37:56.585Z,88.60
2024-01-18T15:40:24.520Z,84.20
2024-01-18T15:42:52.152Z,72.40
2024-01-18T15:45:19.880Z,88.80
2024-01-18T15:47:47.646Z,76.40
2024-01-18T15:50:15.197Z,62.80
2024-01-18T15:52:45.147Z,90.20
2024-01-18T15:55:15.424Z,100.00
2024-01-18T15:57:43.181Z,80.80
2024-01-18T16:00:11.431Z,64.60
2024-01-18T16:02:39.018Z,64.00
2024-01-18T16:05:08.154Z,51.90
2024-01-18T16:07:36.102Z,41.80
2024-01-18T16:10:05.034Z,51.70
2024-01-18T16:12:33.634Z,59.90
2024-01-18T16:15:01.395Z,53.90
2024-01-18T16:17:29.112Z,43.80
2024-01-18T16:19:56.849Z,31.80
2024-01-18T16:22:25.696Z,30.40
2024-01-18T16:24:53.384Z,30.90
2024-01-18T16:27:21.169Z,32.80
2024-01-18T16:30:01.224Z,41.00
2024-01-18T16:32:34.351Z,35.70
2024-01-18T16:35:04.360Z,36.50
2024-01-18T16:37:32.495Z,44.20
2024-01-18T16:40:00.443Z,63.80
2024-01-18T16:42:28.505Z,72.90
2024-01-18T16:44:56.258Z,60.20
2024-01-18T16:47:23.842Z,51.50
2024-01-18T16:49:51.586Z,50.20
2024-01-18T16:52:19.219Z,48.60
2024-01-18T16:54:46.898Z,63.00
2024-01-18T16:57:22.432Z,68.90
2024-01-18T16:59:55.301Z,81.20
2024-01-18T17:02:23.060Z,97.90
2024-01-18T17:04:51.189Z,81.10
2024-01-18T17:07:21.221Z,62.40
2024-01-18T17:09:49.023Z,57.00
2024-01-18T17:12:16.661Z,59.10
2024-01-18T17:14:44.459Z,95.60
2024-01-18T17:17:12.330Z,66.90
2024-01-18T17:19:39.937Z,83.80
2024-01-18T17:22:10.775Z,64.30
2024-01-18T17:24:38.586Z,61.50
2024-01-18T17:27:07.503Z,65.60
2024-01-18T17:29:35.143Z,64.30
2024-01-18T17:32:03.677Z,71.50
2024-01-18T17:34:32.215Z,60.70
2024-01-18T17:36:59.825Z,62.30
2024-01-18T17:39:27.968Z,55.10
2024-01-18T17:41:55.542Z,55.60
2024-01-18T17:44:24.376Z,48.80
2024-01-18T17:46:57.257Z,42.40
2024-01-18T17:49:26.245Z,50.20
2024-01-18T17:51:53.958Z,40.80
2024-01-18T17:54:21.808Z,39.60
2024-01-18T17:56:49.453Z,39.90
2024-01-18T17:59:17.196Z,42.00
2024-01-18T18:01:44.764Z,42.80
2024-01-18T18:04:12.301Z,40.40
2024-01-18T18:06:40.143Z,35.40
2024-01-18T18:09:08.339Z,36.30
2024-01-18T18:11:35.957Z,37.30
2024-01-18T18:14:04.754Z,36.70
2024-01-18T18:16:32.300Z,38.00
2024-01-18T18:18:59.871Z,39.10
2024-01-18T18:21:27.764Z,39.00
2024-01-18T18:23:55.331Z,40.40
2024-01-18T18:26:24.410Z,34.70
2024-01-18T18:28:54.729Z,37.50
2024-01-18T18:31:23.610Z,36.00
2024-01-18T18:33:51.460Z,91.30
2024-01-18T18:36:19.055Z,76.70
2024-01-18T18:38:47.330Z,55.30
2024-01-18T18:41:15.003Z,42.90
2024-01-18T18:43:43.638Z,42.70
2024-01-18T18:46:11.300Z,65.30
2024-01-18T18:48:38.868Z,58.60
2024-01-18T18:51:07.625Z,46.30
2024-01-18T18:53:36.138Z,41.30
2024-01-18T18:56:03.956Z,50.00
2024-01-18T18:58:31.473Z,53.50
2024-01-18T19:01:00.439Z,42.90
2024-01-18T19:03:30.956Z,68.20
2024-01-18T19:05:58.949Z,58.40
2024-01-18T19:08:26.820Z,54.20
2024-01-18T19:10:55.889Z,56.60
2024-01-18T19:13:24.721Z,43.10
2024-01-18T19:15:53.132Z,45.80
2024-01-18T19:18:22.010Z,54.20
2024-01-18T19:20:50.498Z,41.80
2024-01-18T19:23:18.159Z,49.20
2024-01-18T19:25:45.825Z,56.70
2024-01-18T19:28:14.050Z,98.50
2024-01-18T19:30:41.558Z,74.20
2024-01-18T19:33:09.186Z,168.80
2024-01-18T19:35:36.841Z,86.90
2024-01-18T19:38:04.934Z,89.10
2024-01-18T19:40:32.776Z,68.80
2024-01-18T19:43:00.318Z,55.40
2024-01-18T19:45:28.215Z,43.60
2024-01-18T19:47:56.262Z,42.90
2024-01-18T19:50:24.333Z,47.70
2024-01-18T19:52:56.153Z,57.60
2024-01-18T19:55:24.433Z,82.20
2024-01-18T19:57:53.078Z,60.70
2024-01-18T20:00:22.073Z,57.50
2024-01-18T20:02:49.660Z,58.80
2024-01-18T20:05:17.752Z,53.80
2024-01-18T20:07:45.369Z,52.10
2024-01-18T20:10:13.039Z,60.00
2024-01-18T20:12:40.614Z,59.00
2024-01-18T20:15:08.461Z,42.30
2024-01-18T20:17:36.057Z,31.80
2024-01-18T20:20:04.094Z,46.20
2024-01-18T20:22:31.919Z,87.10
2024-01-18T20:24:59.544Z,104.10
2024-01-18T20:27:27.685Z,89.70
2024-01-18T20:29:56.289Z,51.00
2024-01-18T20:32:26.070Z,40.90
2024-01-18T20:34:55.480Z,43.30
2024-01-18T20:37:23.129Z,40.40
2024-01-18T20:39:50.710Z,40.60
2024-01-18T20:42:18.475Z,39.70
2024-01-18T20:44:46.013Z,36.70
2024-01-18T20:47:13.727Z,46.80
2024-01-18T20:49:41.886Z,40.40
2024-01-18T20:52:09.488Z,28.80
2024-01-18T20:54:37.023Z,32.00
2024-01-18T20:57:05.663Z,45.60
2024-01-18T20:59:33.161Z,39.40
2024-01-18T21:02:00.773Z,56.00
2024-01-18T21:04:28.367Z,44.30
2024-01-18T21:06:56.451Z,38.20
2024-01-18T21:09:24.829Z,35.80
2024-01-18T21:11:52.416Z,41.20
2024-01-18T21:14:20.213Z,30.40
2024-01-18T21:16:48.459Z,124.70
2024-01-18T21:19:16.140Z,107.10
2024-01-18T21:21:43.787Z,72.60
2024-01-18T21:24:11.347Z,74.20
2024-01-18T21:26:38.905Z,70.90
2024-01-18T21:29:06.791Z,40.10
2024-01-18T21:31:34.750Z,37.70
2024-01-18T21:34:05.911Z,32.10
2024-01-18T21:36:33.486Z,30.30
2024-01-18T21:39:00.991Z,24.30
2024-01-18T21:41:29.043Z,21.50
2024-01-18T21:43:56.773Z,31.40
2024-01-18T21:46:24.407Z,30.40
2024-01-18T21:48:52.229Z,22.10
2024-01-18T21:51:20.154Z,24.00
2024-01-18T21:53:48.340Z,20.40
2024-01-18T21:56:17.169Z,17.20
2024-01-18T21:58:46.306Z,17.50
2024-01-18T22:01:14.148Z,17.00
2024-01-18T22:03:44.425Z,22.40
2024-01-18T22:06:16.013Z,22.60
2024-01-18T22:08:44.995Z,17.50
2024-01-18T22:11:12.649Z,31.70
2024-01-18T22:13:40.310Z,52.50
2024-01-18T22:16:08.860Z,35.30
2024-01-18T22:18:39.122Z,24.20
2024-01-18T22:21:07.039Z,19.80
2024-01-18T22:23:34.788Z,18.90
2024-01-18T22:26:02.357Z,16.40
2024-01-18T22:28:29.863Z,22.40
2024-01-18T22:30:57.411Z,16.50
2024-01-18T22:33:25.153Z,18.10
2024-01-18T22:35:52.958Z,13.80
2024-01-18T22:38:20.656Z,13.70
2024-01-18T22:40:48.155Z,19.30
2024-01-18T22:43:15.753Z,16.90
2024-01-18T22:45:43.581Z,13.90
2024-01-18T22:48:12.714Z,16.80
2024-01-18T22:50:40.579Z,14.70
2024-01-18T22:53:08.205Z,12.90
2024-01-18T22:55:36.210Z,13.10
2024-01-18T22:58:03.895Z,12.30
2024-01-18T23:00:33.985Z,10.80
2024-01-18T23:03:01.654Z,11.00
2024-01-18T23:05:29.360Z,11.50
2024-01-18T23:07:57.088Z,11.60
2024-01-18T23:10:24.664Z,14.80
2024-01-18T23:12:52.241Z,18.90
2024-01-18T23:15:19.775Z,14.40
2024-01-18T23:17:47.360Z,47.90
2024-01-18T23:20:14.962Z,27.80
2024-01-18T23:22:42.484Z,14.80
2024-01-18T23:25:10.084Z,14.90
2024-01-18T23:27:37.640Z,13.80
2024-01-18T23:30:06.622Z,12.10
2024-01-18T23:32:34.235Z,11.20
2024-01-18T23:35:01.902Z,12.30
2024-01-18T23:37:29.413Z,12.30
2024-01-18T23:39:56.980Z,11.50
2024-01-18T23:42:24.624Z,12.10
2024-01-18T23:44:52.170Z,10.30
2024-01-18T23:47:19.884Z,9.90
2024-01-18T23:49:47.419Z,11.90
2024-01-18T23:52:14.977Z,13.00
2024-01-18T23:54:42.529Z,10.80
2024-01-18T23:57:10.006Z,11.50
2024-01-18T23:59:37.704Z,12.40
